createdAt,value
2019-04-06T00:02:16.597Z,76.79
2019-04-06T00:04:45.056Z,76.75
2019-04-06T00:07:13.502Z,76.58
2019-04-06T00:09:41.950Z,75.99
2019-04-06T00:12:10.404Z,75.80
2019-04-06T00:14:38.868Z,76.16
2019-04-06T00:17:07.336Z,76.47
2019-04-06T00:19:35.811Z,76.56
2019-04-06T00:22:04.421Z,76.54
2019-04-06T00:24:32.882Z,76.10
2019-04-06T00:27:01.611Z,76.16
2019-04-06T00:29:30.065Z,76.03
2019-04-06T00:32:00.171Z,75.85
2019-04-06T00:34:28.710Z,75.85
2019-04-06T00:36:57.178Z,76.13
2019-04-06T00:39:25.667Z,76.47
2019-04-06T00:41:54.138Z,76.46
2019-04-06T00:44:22.626Z,76.68
2019-04-06T00:46:51.092Z,77.94
2019-04-06T00:49:19.534Z,77.94
2019-04-06T00:51:48.032Z,77.92
2019-04-06T00:54:17.203Z,77.60
2019-04-06T00:56:45.798Z,77.94
2019-04-06T00:59:14.233Z,78.44
2019-04-06T01:01:42.709Z,78.67
2019-04-06T01:04:11.262Z,78.67
2019-04-06T01:06:39.704Z,77.26
2019-04-06T01:09:10.248Z,77.03
2019-04-06T01:11:38.880Z,77.03
2019-04-06T01:14:07.285Z,75.95
2019-04-06T01:16:35.769Z,75.95
2019-04-06T01:19:04.249Z,76.01
2019-04-06T01:21:32.723Z,76.01
2019-04-06T01:24:01.173Z,75.43
2019-04-06T01:26:29.628Z,75.43
2019-04-06T01:28:58.094Z,74.80
2019-04-06T01:31:26.564Z,74.93
2019-04-06T01:33:55.038Z,74.93
2019-04-06T01:36:23.511Z,74.60
2019-04-06T01:38:52.812Z,74.69
2019-04-06T01:41:21.299Z,74.21
2019-04-06T01:43:49.760Z,74.69
2019-04-06T01:46:18.225Z,74.96
2019-04-06T01:48:46.650Z,74.76
2019-04-06T01:51:15.135Z,75.12
2019-04-06T01:53:43.586Z,74.19
2019-04-06T01:56:18.338Z,74.19
2019-04-06T01:58:42.241Z,75.29
2019-04-06T02:01:18.116Z,75.29
2019-04-06T02:03:46.565Z,75.69
2019-04-06T02:06:15.022Z,76.89
2019-04-06T02:08:43.556Z,76.73
2019-04-06T02:11:11.969Z,76.73
2019-04-06T02:13:40.418Z,76.89
2019-04-06T02:16:08.982Z,76.93
2019-04-06T02:18:37.419Z,76.93
2019-04-06T02:21:05.901Z,76.89
2019-04-06T02:23:34.461Z,76.70
2019-04-06T02:26:03.086Z,76.20
2019-04-06T02:28:31.542Z,77.01
2019-04-06T02:31:07.746Z,77.04
2019-04-06T02:33:43.762Z,77.11
2019-04-06T02:36:25.606Z,77.14
2019-04-06T02:39:11.804Z,78.40
2019-04-06T02:41:47.857Z,78.58
2019-04-06T02:44:16.335Z,77.71
2019-04-06T02:46:44.783Z,78.19
2019-04-06T02:49:13.264Z,78.27
2019-04-06T02:51:41.711Z,78.19
2019-04-06T02:54:10.181Z,77.74
2019-04-06T02:56:46.265Z,77.91
2019-04-06T02:59:08.831Z,77.51
2019-04-06T03:01:37.261Z,77.56
2019-04-06T03:04:05.704Z,76.95
2019-04-06T03:06:34.340Z,76.74
2019-04-06T03:09:03.939Z,76.52
2019-04-06T03:11:32.383Z,76.58
2019-04-06T03:14:01.093Z,76.11
2019-04-06T03:16:29.512Z,76.02
2019-04-06T03:18:57.953Z,77.24
2019-04-06T03:21:26.412Z,76.71
2019-04-06T03:23:54.867Z,76.83
2019-04-06T03:26:23.329Z,76.72
2019-04-06T03:28:51.789Z,77.06
2019-04-06T03:31:25.069Z,77.14
2019-04-06T03:33:50.989Z,77.37
2019-04-06T03:36:19.808Z,77.11
2019-04-06T03:38:48.278Z,77.86
2019-04-06T03:41:16.722Z,77.25
2019-04-06T03:43:45.369Z,77.38
2019-04-06T03:46:13.835Z,77.15
2019-04-06T03:48:42.318Z,76.95
2019-04-06T03:51:10.810Z,76.60
2019-04-06T03:53:39.187Z,76.85
2019-04-06T03:56:07.673Z,76.60
2019-04-06T03:58:36.130Z,76.74
2019-04-06T04:01:04.686Z,76.06
2019-04-06T04:03:33.152Z,75.81
2019-04-06T04:06:01.591Z,75.62
2019-04-06T04:08:30.094Z,75.37
2019-04-06T04:10:58.513Z,75.40
2019-04-06T04:13:26.985Z,75.73
2019-04-06T04:15:57.341Z,76.34
2019-04-06T04:18:26.042Z,75.89
2019-04-06T04:20:54.493Z,76.67
2019-04-06T04:23:23.140Z,76.71
2019-04-06T04:25:51.725Z,76.99
2019-04-06T04:28:20.165Z,76.57
2019-04-06T04:30:48.665Z,76.50
2019-04-06T04:33:17.339Z,76.05
2019-04-06T04:35:46.066Z,75.82
2019-04-06T04:38:14.662Z,75.12
2019-04-06T04:40:43.109Z,74.24
2019-04-06T04:43:11.586Z,74.15
2019-04-06T04:45:40.063Z,74.13
2019-04-06T04:48:08.519Z,74.45
2019-04-06T04:50:36.970Z,73.49
2019-04-06T04:53:05.448Z,73.48
2019-04-06T04:55:34.506Z,73.06
2019-04-06T04:58:03.164Z,73.34
2019-04-06T05:00:31.592Z,73.60
2019-04-06T05:03:00.105Z,73.39
2019-04-06T05:05:28.614Z,73.17
2019-04-06T05:07:57.107Z,73.16
2019-04-06T05:10:25.642Z,73.25
2019-04-06T05:12:54.055Z,73.17
2019-04-06T05:15:49.241Z,73.00
2019-04-06T05:18:17.698Z,73.19
2019-04-06T05:20:46.171Z,72.69
2019-04-06T05:23:14.596Z,72.47
2019-04-06T05:25:43.159Z,72.02
2019-04-06T05:28:11.571Z,72.03
2019-04-06T05:30:40.072Z,71.80
2019-04-06T05:33:08.477Z,71.80
2019-04-06T05:35:36.952Z,71.92
2019-04-06T05:38:05.449Z,71.18
2019-04-06T05:40:33.831Z,70.84
2019-04-06T05:43:02.331Z,71.22
2019-04-06T05:45:30.734Z,71.22
2019-04-06T05:47:59.216Z,70.53
2019-04-06T05:50:27.690Z,68.91
2019-04-06T05:52:56.154Z,68.91
2019-04-06T05:55:25.023Z,69.89
2019-04-06T05:58:03.440Z,69.64
2019-04-06T06:00:25.197Z,69.49
2019-04-06T06:02:53.599Z,69.49
2019-04-06T06:05:22.058Z,69.72
2019-04-06T06:07:50.521Z,69.72
2019-04-06T06:10:19.018Z,70.06
2019-04-06T06:12:47.501Z,70.06
2019-04-06T06:15:16.218Z,68.57
2019-04-06T06:17:44.703Z,68.17
2019-04-06T06:20:13.289Z,68.17
2019-04-06T06:22:41.759Z,68.04
2019-04-06T06:25:10.482Z,67.30
2019-04-06T06:27:38.938Z,67.85
2019-04-06T06:30:08.621Z,67.92
2019-04-06T06:32:37.080Z,67.38
2019-04-06T06:35:06.511Z,66.95
2019-04-06T06:37:35.009Z,67.15
2019-04-06T06:40:04.874Z,66.95
2019-04-06T06:42:33.327Z,66.56
2019-04-06T06:45:01.815Z,66.40
2019-04-06T06:47:31.126Z,65.99
2019-04-06T06:49:59.747Z,66.53
2019-04-06T06:52:28.427Z,67.05
2019-04-06T06:54:56.915Z,67.08
2019-04-06T06:57:25.388Z,67.18
2019-04-06T06:59:53.842Z,67.45
2019-04-06T07:02:22.319Z,67.61
2019-04-06T07:04:50.780Z,67.87
2019-04-06T07:07:19.247Z,68.15
2019-04-06T07:09:47.786Z,67.71
2019-04-06T07:12:16.317Z,67.59
2019-04-06T07:14:44.754Z,67.09
2019-04-06T07:17:13.317Z,66.82
2019-04-06T07:19:41.791Z,65.94
2019-04-06T07:22:10.670Z,65.11
2019-04-06T07:24:39.113Z,65.13
2019-04-06T07:27:07.576Z,65.13
2019-04-06T07:29:36.025Z,64.21
2019-04-06T07:32:04.568Z,64.07
2019-04-06T07:34:33.023Z,63.64
2019-04-06T07:37:01.514Z,63.46
2019-04-06T07:39:30.144Z,63.46
2019-04-06T07:41:58.601Z,62.57
2019-04-06T07:44:27.083Z,62.70
2019-04-06T07:46:55.753Z,62.36
2019-04-06T07:49:24.229Z,61.71
2019-04-06T07:51:52.692Z,61.85
2019-04-06T07:54:21.192Z,61.56
2019-04-06T07:56:49.647Z,61.50
2019-04-06T07:59:18.136Z,61.42
2019-04-06T08:01:48.377Z,61.30
2019-04-06T08:04:16.999Z,60.88
2019-04-06T08:06:45.463Z,60.52
2019-04-06T08:09:13.898Z,60.25
2019-04-06T08:11:42.456Z,59.82
2019-04-06T08:14:10.910Z,59.91
2019-04-06T08:16:39.388Z,59.93
2019-04-06T08:19:07.835Z,59.08
2019-04-06T08:21:36.422Z,59.19
2019-04-06T08:24:04.897Z,58.44
2019-04-06T08:26:33.415Z,58.72
2019-04-06T08:29:02.734Z,58.43
2019-04-06T08:31:31.251Z,58.41
2019-04-06T08:33:59.752Z,58.19
2019-04-06T08:36:28.170Z,58.21
2019-04-06T08:38:57.104Z,57.91
2019-04-06T08:41:25.561Z,57.92
2019-04-06T08:43:54.040Z,56.25
2019-04-06T08:46:22.504Z,55.73
2019-04-06T08:48:50.975Z,55.28
2019-04-06T08:51:19.688Z,55.12
2019-04-06T08:53:48.208Z,55.57
2019-04-06T08:56:16.695Z,55.00
2019-04-06T08:58:45.163Z,54.78
2019-04-06T09:01:13.634Z,54.65
2019-04-06T09:03:42.078Z,54.87
2019-04-06T09:06:10.603Z,54.63
2019-04-06T09:08:39.018Z,53.57
2019-04-06T09:11:07.508Z,53.37
2019-04-06T09:13:36.006Z,53.17
2019-04-06T09:16:04.487Z,53.07
2019-04-06T09:18:32.930Z,53.51
2019-04-06T09:21:01.392Z,53.13
2019-04-06T09:23:30.217Z,53.03
2019-04-06T09:25:58.806Z,53.18
2019-04-06T09:28:27.337Z,53.02
2019-04-06T09:30:55.728Z,52.63
2019-04-06T09:33:24.223Z,51.96
2019-04-06T09:35:52.683Z,50.94
2019-04-06T09:38:21.161Z,50.99
2019-04-06T09:40:50.917Z,51.06
2019-04-06T09:43:19.449Z,50.68
2019-04-06T09:46:01.447Z,49.84
2019-04-06T09:48:48.097Z,49.37
2019-04-06T09:51:27.063Z,49.08
2019-04-06T09:54:13.457Z,48.07
2019-04-06T09:56:52.304Z,47.82
2019-04-06T09:59:37.111Z,47.27
2019-04-06T10:02:19.291Z,47.01
2019-04-06T10:05:01.385Z,47.30
2019-04-06T10:07:31.507Z,47.47
2019-04-06T10:10:04.317Z,46.95
2019-04-06T10:12:49.828Z,46.96
2019-04-06T10:15:37.966Z,46.68
2019-04-06T10:18:24.489Z,47.13
2019-04-06T10:21:11.107Z,46.09
2019-04-06T10:23:56.492Z,46.21
2019-04-06T10:26:26.612Z,46.05
2019-04-06T10:28:59.623Z,45.84
2019-04-06T10:31:45.905Z,45.49
2019-04-06T10:34:31.637Z,46.01
2019-04-06T10:37:17.912Z,45.46
2019-04-06T10:39:50.672Z,45.00
2019-04-06T10:42:29.982Z,45.38
2019-04-06T10:45:05.907Z,45.49
2019-04-06T10:47:36.029Z,44.77
2019-04-06T10:50:07.162Z,45.03
2019-04-06T10:52:55.144Z,45.22
2019-04-06T10:55:25.231Z,43.49
2019-04-06T10:57:59.186Z,43.05
2019-04-06T11:00:31.841Z,42.60
2019-04-06T11:03:03.074Z,42.13
2019-04-06T11:05:33.208Z,41.95
2019-04-06T11:08:19.535Z,41.93
2019-04-06T11:11:05.925Z,41.89
2019-04-06T11:13:45.058Z,42.11
2019-04-06T11:16:18.271Z,41.64
2019-04-06T11:19:06.494Z,41.82
2019-04-06T11:21:36.813Z,41.31
2019-04-06T11:24:22.007Z,42.11
2019-04-06T11:27:08.291Z,40.67
2019-04-06T11:29:41.384Z,41.33
2019-04-06T11:32:14.477Z,41.38
2019-04-06T11:34:53.795Z,41.42
2019-04-06T11:37:26.437Z,42.16
2019-04-06T11:39:56.545Z,42.05
2019-04-06T11:42:42.644Z,41.88
2019-04-06T11:45:29.106Z,41.70
2019-04-06T11:48:02.200Z,41.72
2019-04-06T11:50:48.365Z,41.91
2019-04-06T11:53:18.529Z,41.78
2019-04-06T11:56:05.114Z,41.16
2019-04-06T11:58:41.087Z,41.32
2019-04-06T12:01:27.618Z,41.37
2019-04-06T12:04:10.249Z,41.15
2019-04-06T12:06:40.428Z,41.21
2019-04-06T12:09:10.549Z,41.02
2019-04-06T12:11:40.761Z,41.56
2019-04-06T12:14:11.018Z,41.33
2019-04-06T12:16:41.202Z,40.60
2019-04-06T12:19:16.789Z,40.30
2019-04-06T12:22:03.324Z,39.57
2019-04-06T12:24:36.011Z,39.74
2019-04-06T12:27:11.791Z,39.93
2019-04-06T12:29:41.881Z,39.91
2019-04-06T12:32:17.992Z,38.39
2019-04-06T12:35:04.306Z,38.20
2019-04-06T12:37:34.421Z,38.32
2019-04-06T12:40:04.661Z,38.36
2019-04-06T12:42:43.500Z,38.47
2019-04-06T12:45:19.346Z,38.87
2019-04-06T12:47:51.870Z,37.96
2019-04-06T12:50:37.929Z,38.70
2019-04-06T12:53:24.171Z,38.85
2019-04-06T12:55:54.364Z,38.32
2019-04-06T12:58:39.634Z,38.72
2019-04-06T13:01:12.451Z,37.62
2019-04-06T13:03:45.584Z,37.55
2019-04-06T13:06:27.734Z,37.68
2019-04-06T13:09:10.142Z,37.87
2019-04-06T13:11:46.154Z,37.39
2019-04-06T13:14:22.389Z,36.34
2019-04-06T13:17:08.815Z,36.15
2019-04-06T13:19:38.901Z,35.52
2019-04-06T13:22:18.084Z,34.53
2019-04-06T13:25:06.534Z,34.77
2019-04-06T13:27:45.379Z,35.36
2019-04-06T13:30:34.221Z,35.16
2019-04-06T13:33:19.365Z,35.06
2019-04-06T13:36:05.616Z,34.84
2019-04-06T13:38:47.827Z,33.62
2019-04-06T13:41:20.836Z,33.93
2019-04-06T13:43:51.225Z,33.36
2019-04-06T13:46:37.601Z,33.53
2019-04-06T13:49:07.971Z,33.21
2019-04-06T13:51:43.987Z,32.70
2019-04-06T13:54:32.484Z,32.38
2019-04-06T13:57:08.318Z,33.27
2019-04-06T13:59:41.341Z,33.70
2019-04-06T14:02:27.993Z,33.30
2019-04-06T14:05:10.067Z,31.96
2019-04-06T14:07:43.063Z,31.61
2019-04-06T14:10:19.806Z,31.78
2019-04-06T14:12:50.194Z,31.41
2019-04-06T14:15:21.067Z,31.42
2019-04-06T14:17:56.676Z,31.27
2019-04-06T14:20:42.041Z,31.79
2019-04-06T14:23:14.867Z,31.43
2019-04-06T14:25:44.951Z,31.67
2019-04-06T14:28:17.633Z,31.78
2019-04-06T14:31:02.546Z,31.67
2019-04-06T14:33:44.542Z,31.43
2019-04-06T14:36:14.659Z,31.28
2019-04-06T14:39:01.041Z,31.07
2019-04-06T14:41:31.161Z,31.73
2019-04-06T14:44:07.544Z,30.86
2019-04-06T14:46:37.734Z,30.55
2019-04-06T14:49:30.850Z,30.80
2019-04-06T14:52:02.121Z,30.55
2019-04-06T14:54:47.288Z,30.75
2019-04-06T14:57:26.347Z,31.31
2019-04-06T15:00:09.019Z,31.28
2019-04-06T15:02:48.237Z,31.54
2019-04-06T15:05:25.672Z,31.83
2019-04-06T15:08:01.484Z,31.61
2019-04-06T15:10:34.247Z,31.83
2019-04-06T15:13:04.530Z,31.14
2019-04-06T15:15:34.707Z,31.25
2019-04-06T15:18:05.007Z,31.51
2019-04-06T15:20:35.209Z,30.41
2019-04-06T15:23:21.354Z,30.82
2019-04-06T15:25:57.099Z,30.78
2019-04-06T15:28:33.178Z,31.05
2019-04-06T15:31:05.997Z,30.67
2019-04-06T15:33:50.891Z,30.29
2019-04-06T15:36:20.986Z,30.31
2019-04-06T15:39:07.588Z,30.48
2019-04-06T15:41:40.395Z,30.62
2019-04-06T15:44:26.725Z,30.77
2019-04-06T15:47:13.560Z,31.07
2019-04-06T15:49:46.528Z,30.32
2019-04-06T15:52:19.409Z,30.45
2019-04-06T15:55:01.763Z,31.00
2019-04-06T15:57:32.100Z,31.13
2019-04-06T16:00:18.369Z,30.62
2019-04-06T16:02:51.201Z,31.21
2019-04-06T16:05:27.306Z,30.71
2019-04-06T16:08:06.622Z,30.31
2019-04-06T16:10:53.027Z,30.75
2019-04-06T16:13:23.505Z,31.40
2019-04-06T16:15:53.573Z,32.38
2019-04-06T16:18:25.667Z,32.66
2019-04-06T16:20:59.195Z,33.22
2019-04-06T16:23:29.706Z,33.44
2019-04-06T16:25:59.800Z,33.65
2019-04-06T16:28:46.593Z,33.62
2019-04-06T16:31:16.820Z,33.71
2019-04-06T16:33:52.962Z,33.49
2019-04-06T16:36:26.038Z,33.32
2019-04-06T16:38:56.146Z,33.68
2019-04-06T16:41:26.586Z,33.93
2019-04-06T16:44:02.519Z,33.95
2019-04-06T16:46:52.127Z,33.81
2019-04-06T16:49:28.261Z,33.59
2019-04-06T16:51:58.343Z,33.61
2019-04-06T16:54:28.775Z,33.63
2019-04-06T16:56:58.969Z,33.64
2019-04-06T16:59:38.229Z,33.57
2019-04-06T17:02:08.347Z,33.48
2019-04-06T17:04:54.694Z,33.97
2019-04-06T17:07:41.074Z,34.38
2019-04-06T17:10:14.118Z,34.71
2019-04-06T17:12:50.337Z,35.53
2019-04-06T17:15:20.529Z,36.07
2019-04-06T17:17:53.425Z,36.84
2019-04-06T17:20:32.439Z,37.21
2019-04-06T17:23:05.468Z,37.12
2019-04-06T17:25:35.627Z,37.56
2019-04-06T17:28:08.678Z,37.60
2019-04-06T17:30:38.797Z,37.79
2019-04-06T17:33:21.015Z,37.83
2019-04-06T17:35:57.300Z,38.56
2019-04-06T17:38:33.377Z,38.35
2019-04-06T17:41:03.940Z,38.61
2019-04-06T17:43:47.402Z,39.11
2019-04-06T17:46:17.806Z,38.67
2019-04-06T17:49:06.645Z,38.84
2019-04-06T17:51:46.369Z,39.74
2019-04-06T17:54:28.105Z,39.25
2019-04-06T17:57:00.888Z,39.33
2019-04-06T17:59:31.252Z,39.61
2019-04-06T18:02:04.720Z,39.92
2019-04-06T18:04:50.069Z,39.65
2019-04-06T18:07:20.207Z,39.62
2019-04-06T18:09:59.611Z,39.54
2019-04-06T18:12:38.438Z,39.91
2019-04-06T18:15:08.164Z,40.00
2019-04-06T18:17:36.654Z,40.12
2019-04-06T18:20:08.535Z,39.95
2019-04-06T18:22:37.029Z,40.48
2019-04-06T18:25:06.551Z,40.21
2019-04-06T18:27:35.456Z,40.50
2019-04-06T18:30:06.838Z,40.35
2019-04-06T18:32:59.699Z,39.99
2019-04-06T18:35:22.317Z,40.25
2019-04-06T18:38:04.753Z,40.03
2019-04-06T18:40:33.330Z,40.22
2019-04-06T18:43:01.837Z,40.19
2019-04-06T18:45:31.299Z,40.31
2019-04-06T18:47:59.795Z,40.39
2019-04-06T18:50:34.151Z,40.60
2019-04-06T18:52:58.498Z,40.52
2019-04-06T18:55:27.104Z,40.83
2019-04-06T18:57:57.061Z,41.06
2019-04-06T19:00:26.378Z,41.13
2019-04-06T19:02:54.867Z,41.27
2019-04-06T19:05:23.327Z,41.35
2019-04-06T19:07:52.044Z,41.71
2019-04-06T19:10:20.569Z,41.89
2019-04-06T19:12:49.477Z,41.85
2019-04-06T19:15:18.405Z,42.02
2019-04-06T19:17:47.461Z,41.94
2019-04-06T19:20:16.097Z,42.38
2019-04-06T19:22:44.548Z,42.14
2019-04-06T19:25:13.018Z,42.46
2019-04-06T19:27:41.471Z,42.45
2019-04-06T19:30:11.469Z,42.54
2019-04-06T19:32:39.937Z,42.83
2019-04-06T19:35:08.958Z,42.94
2019-04-06T19:37:37.426Z,43.18
2019-04-06T19:40:07.323Z,43.69
2019-04-06T19:42:36.376Z,43.06
2019-04-06T19:45:08.158Z,43.67
2019-04-06T19:47:37.054Z,43.77
2019-04-06T19:50:06.794Z,43.95
2019-04-06T19:52:35.845Z,43.97
2019-04-06T19:55:07.308Z,44.24
2019-04-06T19:57:36.146Z,44.50
2019-04-06T20:00:08.056Z,44.63
2019-04-06T20:02:36.935Z,44.62
2019-04-06T20:05:07.415Z,44.68
2019-04-06T20:07:35.873Z,44.94
2019-04-06T20:10:07.189Z,45.12
2019-04-06T20:12:36.123Z,45.08
2019-04-06T20:15:07.649Z,45.62
2019-04-06T20:17:36.116Z,45.92
2019-04-06T20:20:08.802Z,45.76
2019-04-06T20:22:37.625Z,45.66
2019-04-06T20:25:07.432Z,45.92
2019-04-06T20:27:36.440Z,45.64
2019-04-06T20:30:09.992Z,46.21
2019-04-06T20:32:38.463Z,46.49
2019-04-06T20:35:09.279Z,46.86
2019-04-06T20:37:37.852Z,46.54
2019-04-06T20:40:10.275Z,46.73
2019-04-06T20:42:39.370Z,46.84
2019-04-06T20:45:08.343Z,46.96
2019-04-06T20:47:37.031Z,47.14
2019-04-06T20:50:07.303Z,47.12
2019-04-06T20:52:36.089Z,47.39
2019-04-06T20:55:06.783Z,47.41
2019-04-06T20:57:35.260Z,47.13
2019-04-06T21:00:05.363Z,47.46
2019-04-06T21:02:34.033Z,47.88
2019-04-06T21:05:03.035Z,47.82
2019-04-06T21:07:31.606Z,48.13
2019-04-06T21:10:00.638Z,48.13
2019-04-06T21:12:29.256Z,48.34
2019-04-06T21:14:57.687Z,48.67
2019-04-06T21:17:26.610Z,48.40
2019-04-06T21:19:55.103Z,48.49
2019-04-06T21:22:23.914Z,48.71
2019-04-06T21:24:53.164Z,48.47
2019-04-06T21:27:21.744Z,48.52
2019-04-06T21:29:50.737Z,48.67
2019-04-06T21:32:19.323Z,48.59
2019-04-06T21:34:48.385Z,48.98
2019-04-06T21:37:17.016Z,49.35
2019-04-06T21:39:45.462Z,49.28
2019-04-06T21:42:14.561Z,49.96
2019-04-06T21:44:43.464Z,49.42
2019-04-06T21:47:12.170Z,49.87
2019-04-06T21:49:40.612Z,49.97
2019-04-06T21:52:09.068Z,49.84
2019-04-06T21:54:37.568Z,50.06
2019-04-06T21:57:06.221Z,50.25
2019-04-06T21:59:34.684Z,50.26
2019-04-06T22:02:03.368Z,50.84
2019-04-06T22:04:31.878Z,50.99
2019-04-06T22:07:00.922Z,51.29
2019-04-06T22:09:29.757Z,50.78
2019-04-06T22:11:58.473Z,51.24
2019-04-06T22:14:27.058Z,51.23
2019-04-06T22:16:56.031Z,51.24
2019-04-06T22:19:25.252Z,51.30
2019-04-06T22:21:54.334Z,51.43
2019-04-06T22:24:22.771Z,51.14
2019-04-06T22:26:51.859Z,51.50
2019-04-06T22:29:20.714Z,51.21
2019-04-06T22:31:49.237Z,51.31
2019-04-06T22:34:17.665Z,51.57
2019-04-06T22:36:46.699Z,51.76
2019-04-06T22:39:15.409Z,52.03
2019-04-06T22:41:43.914Z,51.86
2019-04-06T22:44:12.366Z,51.89
2019-04-06T22:46:40.848Z,51.88
2019-04-06T22:49:09.336Z,52.00
2019-04-06T22:51:38.003Z,52.13
2019-04-06T22:54:06.807Z,52.09
2019-04-06T22:56:35.408Z,52.36
2019-04-06T22:59:03.860Z,52.70
2019-04-06T23:01:34.615Z,52.42
2019-04-06T23:04:04.899Z,52.63
2019-04-06T23:06:35.419Z,52.68
2019-04-06T23:09:05.555Z,52.85
2019-04-06T23:11:34.349Z,53.13
2019-04-06T23:14:03.051Z,53.14
2019-04-06T23:16:31.550Z,53.43
2019-04-06T23:19:00.328Z,53.44
2019-04-06T23:21:29.472Z,53.70
2019-04-06T23:23:58.104Z,53.72
2019-04-06T23:26:26.656Z,54.13
2019-04-06T23:28:55.112Z,54.43
2019-04-06T23:31:23.541Z,54.43
2019-04-06T23:33:52.016Z,54.68
2019-04-06T23:36:20.484Z,54.93
2019-04-06T23:38:48.973Z,54.93
2019-04-06T23:41:17.497Z,55.46
2019-04-06T23:43:45.951Z,55.77
2019-04-06T23:46:14.414Z,55.43
2019-04-06T23:48:42.903Z,55.18
2019-04-06T23:51:11.337Z,55.65
2019-04-06T23:53:39.942Z,55.71
2019-04-06T23:56:09.088Z,56.12
2019-04-06T23:58:37.564Z,55.94
